Time;durP1;ratioP1;P1;durP2;ratioP2;P2;SDS_P1;SDS_P2;PMS_P1;PMS_P2;Temp;Humidity;BMP_temperature;BMP_pressure;BME280_temperature;BME280_humidity;BME280_pressure;Samples;Min_cycle;Max_cycle;Signal;HPM_P1;HPM_P2
2021/04/07 00:00:23;;;;;;;6.37;2.83;;;;;;;9.28;57.94;98919.64;1782330;80;21183;-58
2021/04/07 00:02:51;;;;;;;8.93;2.35;;;;;;;9.26;57.91;98918.94;1784138;78;21281;-58
2021/04/07 00:05:34;;;;;;;5.17;2.52;;;;;;;9.26;58.01;98922.88;1787771;78;21271;-58
2021/04/07 00:08:03;;;;;;;6.40;2.75;;;;;;;9.23;58.08;98916.61;1789680;78;21206;-57
2021/04/07 00:10:38;;;;;;;5.17;2.25;;;;;;;9.18;58.16;98917.08;1785633;78;22228;-57
2021/04/07 00:13:06;;;;;;;4.80;2.50;;;;;;;9.15;58.30;98911.31;1799662;78;21157;-58
2021/04/07 00:15:34;;;;;;;6.37;2.87;;;;;;;9.10;58.40;98909.13;1783667;78;21201;-58
2021/04/07 00:18:03;;;;;;;6.70;2.67;;;;;;;9.10;58.56;98907.31;1798919;78;21109;-58
2021/04/07 00:20:31;;;;;;;7.95;2.47;;;;;;;9.11;58.66;98908.98;1772096;79;21144;-58
2021/04/07 00:23:00;;;;;;;5.35;2.70;;;;;;;9.12;58.74;98907.17;1767059;80;21163;-58
2021/04/07 00:25:28;;;;;;;6.05;2.37;;;;;;;9.10;58.82;98904.70;1783397;78;21111;-58
2021/04/07 00:27:57;;;;;;;6.55;2.85;;;;;;;9.08;58.93;98901.89;1749333;79;21186;-58
2021/04/07 00:30:27;;;;;;;7.78;3.05;;;;;;;9.10;59.01;98904.70;1777034;79;21266;-58
2021/04/07 00:32:55;;;;;;;5.62;2.90;;;;;;;9.11;58.98;98904.20;1783534;78;21148;-58
2021/04/07 00:35:24;;;;;;;6.35;2.25;;;;;;;9.07;59.04;98897.11;1794015;79;21128;-58
2021/04/07 00:37:52;;;;;;;6.62;2.58;;;;;;;9.06;59.13;98902.51;1773979;79;21160;-58
2021/04/07 00:40:20;;;;;;;8.10;2.98;;;;;;;9.04;59.16;98900.53;1786004;79;21092;-58
2021/04/07 00:42:50;;;;;;;6.53;2.52;;;;;;;9.01;59.27;98894.27;1778021;79;21207;-58
2021/04/07 00:45:18;;;;;;;6.95;2.83;;;;;;;8.98;59.37;98895.41;1759907;79;21167;-58
2021/04/07 00:47:48;;;;;;;6.58;2.00;;;;;;;9.04;59.37;98888.72;1771806;79;21155;-58
2021/04/07 00:50:17;;;;;;;6.85;2.77;;;;;;;9.18;59.25;98888.67;1740856;80;21172;-58
2021/04/07 00:52:44;;;;;;;7.87;3.15;;;;;;;9.27;59.24;98889.91;1742310;80;21203;-58
2021/04/07 00:55:13;;;;;;;6.55;2.87;;;;;;;9.37;59.19;98887.22;1755822;80;21200;-58
2021/04/07 00:57:41;;;;;;;7.92;3.02;;;;;;;9.42;59.11;98893.33;1754928;80;21176;-58
2021/04/07 01:00:10;;;;;;;9.75;3.42;;;;;;;9.44;59.13;98887.43;1784872;78;21195;-58
2021/04/07 01:02:40;;;;;;;7.30;3.10;;;;;;;9.44;59.12;98889.56;1784318;80;21744;-58
2021/04/07 01:05:09;;;;;;;7.70;3.17;;;;;;;9.45;59.21;98893.03;1760741;78;21179;-58
2021/04/07 01:07:37;;;;;;;7.95;4.47;;;;;;;9.46;59.31;98890.72;1784293;78;21197;-58
2021/04/07 01:10:08;;;;;;;6.45;2.98;;;;;;;9.44;59.58;98888.25;1777655;78;21185;-58
2021/04/07 01:12:38;;;;;;;7.30;4.12;;;;;;;9.44;59.70;98887.43;1775601;78;21188;-58
2021/04/07 01:15:09;;;;;;;7.12;3.47;;;;;;;9.40;59.81;98882.98;1783056;78;21186;-58
2021/04/07 01:17:39;;;;;;;5.78;3.10;;;;;;;9.36;60.06;98884.73;1794518;77;21596;-58
2021/04/07 01:20:09;;;;;;;7.25;3.30;;;;;;;9.35;60.22;98888.36;1781051;80;21300;-58
2021/04/07 01:22:37;;;;;;;6.83;3.20;;;;;;;9.35;60.44;98886.55;1778757;78;21104;-58
2021/04/07 01:25:07;;;;;;;8.68;3.42;;;;;;;9.35;60.61;98893.61;1771790;78;21116;-58
2021/04/07 01:27:37;;;;;;;7.72;3.62;;;;;;;9.34;60.73;98889.32;1777557;78;21552;-58
2021/04/07 01:30:08;;;;;;;7.42;3.40;;;;;;;9.31;60.91;98887.81;1753401;80;21192;-58
2021/04/07 01:32:37;;;;;;;8.63;3.05;;;;;;;9.36;60.95;98893.42;1776147;78;21361;-58
2021/04/07 01:35:10;;;;;;;7.30;3.02;;;;;;;9.43;60.95;98883.99;1749061;80;21195;-58
2021/04/07 01:37:38;;;;;;;8.78;3.45;;;;;;;9.51;60.99;98885.84;1776352;78;21116;-58
2021/04/07 01:40:12;;;;;;;7.95;3.83;;;;;;;9.57;61.19;98886.55;1774872;80;21188;-58
2021/04/07 01:42:45;;;;;;;5.62;3.22;;;;;;;9.57;61.00;98893.11;1774773;78;21627;-58
2021/04/07 01:45:13;;;;;;;6.90;3.42;;;;;;;9.54;61.35;98893.41;1775524;78;21198;-58
2021/04/07 01:47:43;;;;;;;5.72;2.92;;;;;;;9.52;61.46;98889.31;1739477;80;21132;-58
2021/04/07 01:50:11;;;;;;;5.75;3.25;;;;;;;9.51;61.42;98892.41;1762510;79;21176;-58
2021/04/07 01:52:39;;;;;;;5.08;2.70;;;;;;;9.51;61.53;98890.27;1781267;79;21106;-58
2021/04/07 01:55:09;;;;;;;7.92;3.98;;;;;;;9.45;61.71;98887.28;1735465;80;21182;-58
2021/04/07 01:57:36;;;;;;;9.70;2.95;;;;;;;9.42;61.91;98883.64;1737948;80;21187;-59
2021/04/07 02:00:10;;;;;;;6.22;3.33;;;;;;;9.37;62.25;98878.02;1770796;78;21187;-57
2021/04/07 02:02:38;;;;;;;8.03;4.15;;;;;;;9.32;62.49;98878.97;1773694;78;21448;-57
2021/04/07 02:05:08;;;;;;;10.85;5.55;;;;;;;9.21;62.78;98882.66;1771959;79;21211;-57
2021/04/07 02:07:35;;;;;;;11.40;5.62;;;;;;;9.00;62.41;98873.77;1775373;78;21596;-57
2021/04/07 02:10:06;;;;;;;8.68;5.25;;;;;;;8.79;62.64;98874.54;1749562;80;21132;-57
2021/04/07 02:12:34;;;;;;;13.25;5.47;;;;;;;8.60;62.58;98860.58;1745691;78;21187;-57
2021/04/07 02:15:10;;;;;;;10.05;5.62;;;;;;;8.56;62.77;98859.23;1772047;78;21848;-57
2021/04/07 02:17:38;;;;;;;10.75;5.90;;;;;;;8.49;62.64;98850.29;1775419;80;21195;-57
2021/04/07 02:20:08;;;;;;;11.03;6.12;;;;;;;8.38;63.09;98848.67;1774066;78;21168;-57
2021/04/07 02:22:36;;;;;;;9.38;5.92;;;;;;;8.27;63.39;98846.24;1776714;78;21814;-57
2021/04/07 02:25:06;;;;;;;7.80;5.30;;;;;;;8.12;63.81;98840.19;1770689;78;21139;-57
2021/04/07 02:27:35;;;;;;;10.10;5.20;;;;;;;8.02;64.11;98838.11;1771964;79;21607;-58
2021/04/07 02:30:07;;;;;;;8.60;5.28;;;;;;;7.94;64.40;98828.83;1789230;78;21184;-57
2021/04/07 02:32:34;;;;;;;9.88;6.12;;;;;;;7.91;64.72;98819.95;1781299;78;21279;-57
2021/04/07 02:35:03;;;;;;;7.80;4.87;;;;;;;7.89;64.89;98814.85;1784007;79;21211;-57
2021/04/07 02:37:30;;;;;;;10.90;6.45;;;;;;;7.80;65.03;98812.61;1782591;78;21171;-58
2021/04/07 02:40:00;;;;;;;10.53;6.37;;;;;;;7.74;65.28;98811.05;1779751;79;21449;-58
2021/04/07 02:42:27;;;;;;;9.25;5.53;;;;;;;7.76;65.37;98813.03;1795760;78;21188;-58
2021/04/07 02:44:56;;;;;;;10.32;5.28;;;;;;;7.82;65.16;98821.64;1787418;78;21179;-58
2021/04/07 02:47:24;;;;;;;8.98;5.42;;;;;;;7.87;65.10;98820.72;1785454;78;21265;-58
2021/04/07 02:49:52;;;;;;;10.95;5.67;;;;;;;7.88;64.81;98819.73;1777061;80;21172;-58
2021/04/07 02:52:20;;;;;;;12.37;6.78;;;;;;;7.83;64.90;98825.89;1788127;78;21219;-58
2021/04/07 02:54:48;;;;;;;11.70;6.90;;;;;;;7.81;65.04;98833.07;1775272;79;21195;-58
2021/04/07 02:57:16;;;;;;;10.88;5.97;;;;;;;7.77;65.03;98847.43;1789585;78;21168;-58
2021/04/07 02:59:44;;;;;;;10.32;4.90;;;;;;;7.72;64.85;98847.84;1785972;80;21208;-58
2021/04/07 03:02:12;;;;;;;8.25;4.90;;;;;;;7.66;64.61;98863.30;1774612;79;21208;-58
2021/04/07 03:04:40;;;;;;;10.85;5.20;;;;;;;7.48;64.75;98868.42;1777538;78;21175;-58
2021/04/07 03:07:07;;;;;;;7.45;3.90;;;;;;;7.30;65.00;98883.53;1772186;78;21179;-58
2021/04/07 03:09:35;;;;;;;8.08;4.55;;;;;;;7.15;65.21;98885.73;1751196;79;21187;-57
2021/04/07 03:12:04;;;;;;;7.40;3.87;;;;;;;7.03;65.47;98898.12;1751790;80;21159;-57
2021/04/07 03:14:32;;;;;;;6.87;4.00;;;;;;;6.97;65.75;98905.69;1773468;77;21180;-57
2021/04/07 03:17:01;;;;;;;8.88;4.58;;;;;;;6.99;65.69;98919.44;1812760;77;21144;-58
2021/04/07 03:19:30;;;;;;;8.98;3.92;;;;;;;6.95;65.68;98924.13;1808328;77;21651;-58
2021/04/07 03:21:58;;;;;;;7.75;4.25;;;;;;;6.89;66.04;98925.96;1796176;79;21164;-58
2021/04/07 03:24:25;;;;;;;7.10;3.98;;;;;;;6.80;66.21;98935.44;1803817;77;21197;-58
2021/04/07 03:26:53;;;;;;;7.42;4.35;;;;;;;6.71;66.17;98938.88;1788381;78;21254;-58
2021/04/07 03:29:21;;;;;;;12.28;4.97;;;;;;;6.63;66.39;98950.47;1741914;80;21219;-58
2021/04/07 03:31:48;;;;;;;8.48;4.42;;;;;;;6.52;66.46;98951.38;1780048;78;21192;-58
2021/04/07 03:34:16;;;;;;;9.08;4.58;;;;;;;6.42;66.75;98955.75;1803885;78;21194;-57
2021/04/07 03:36:44;;;;;;;8.40;3.95;;;;;;;6.40;66.95;98957.18;1814162;78;21259;-57
2021/04/07 03:39:11;;;;;;;8.90;4.87;;;;;;;6.47;66.87;98956.17;1787638;80;21177;-57
2021/04/07 03:41:40;;;;;;;8.93;4.75;;;;;;;6.60;66.56;98965.11;1790366;78;21164;-57
2021/04/07 03:44:08;;;;;;;8.65;4.28;;;;;;;6.68;66.35;98963.48;1759251;80;21583;-57
2021/04/07 03:46:35;;;;;;;11.70;4.45;;;;;;;6.62;66.23;98964.49;1819132;78;21170;-58
2021/04/07 03:49:03;;;;;;;8.70;4.55;;;;;;;6.47;66.51;98971.40;1759527;80;21205;-58
2021/04/07 03:51:30;;;;;;;8.30;4.70;;;;;;;6.35;66.75;98958.55;1748005;80;21640;-58
2021/04/07 03:53:58;;;;;;;8.15;5.05;;;;;;;6.29;67.08;98959.41;1784985;78;21209;-58
2021/04/07 03:56:27;;;;;;;9.50;4.35;;;;;;;6.31;67.04;98961.41;1780138;78;21254;-58
2021/04/07 03:58:55;;;;;;;8.08;3.77;;;;;;;6.37;66.73;98957.92;1810910;78;21219;-57
2021/04/07 04:01:23;;;;;;;7.70;3.77;;;;;;;6.44;66.42;98951.21;1787594;79;21244;-58
2021/04/07 04:03:51;;;;;;;7.75;4.85;;;;;;;6.55;66.18;98945.90;1759026;80;21184;-58
2021/04/07 04:06:18;;;;;;;6.80;3.70;;;;;;;6.63;65.99;98945.25;1789510;79;21144;-58
2021/04/07 04:08:46;;;;;;;11.53;4.75;;;;;;;6.68;66.38;98940.45;1787252;78;21200;-58
2021/04/07 04:11:14;;;;;;;9.20;4.67;;;;;;;6.74;66.26;98938.61;1807632;78;21156;-58
2021/04/07 04:13:44;;;;;;;7.92;4.25;;;;;;;6.77;65.99;98942.23;1754483;80;21253;-58
2021/04/07 04:16:11;;;;;;;6.45;2.92;;;;;;;6.75;65.78;98943.35;1794037;78;21163;-58
2021/04/07 04:18:40;;;;;;;6.65;3.62;;;;;;;6.70;65.78;98947.67;1774609;77;21175;-58
2021/04/07 04:21:08;;;;;;;6.12;3.08;;;;;;;6.57;65.80;98949.69;1796663;78;21203;-58
2021/04/07 04:23:36;;;;;;;8.38;3.80;;;;;;;6.42;66.11;98949.22;1811619;78;22305;-58
2021/04/07 04:26:03;;;;;;;7.22;2.65;;;;;;;6.38;66.42;98949.96;1818827;78;21378;-57
2021/04/07 04:28:31;;;;;;;8.23;3.42;;;;;;;6.50;66.30;98966.38;1738002;78;21227;-58
2021/04/07 04:30:59;;;;;;;7.10;2.72;;;;;;;6.57;65.56;98958.84;1750201;79;21149;-58
2021/04/07 04:33:29;;;;;;;6.80;2.77;;;;;;;6.57;65.29;98957.53;1780480;78;21622;-57
2021/04/07 04:35:59;;;;;;;9.68;3.50;;;;;;;6.53;65.29;98957.45;1805248;78;21182;-57
2021/04/07 04:38:27;;;;;;;5.28;2.65;;;;;;;6.53;65.20;98963.99;1786617;78;21281;-59
2021/04/07 04:40:55;;;;;;;7.03;3.02;;;;;;;6.50;65.03;98976.34;1784096;78;21179;-59
2021/04/07 04:43:24;;;;;;;7.12;2.92;;;;;;;6.42;65.34;98977.95;1791897;78;21173;-58
2021/04/07 04:45:51;;;;;;;10.25;4.67;;;;;;;6.38;65.95;98977.39;1786772;78;21654;-57
2021/04/07 04:48:20;;;;;;;5.85;2.60;;;;;;;6.40;66.00;98975.96;1787309;78;21104;-57
2021/04/07 04:50:48;;;;;;;10.28;4.17;;;;;;;6.52;65.92;98985.36;1804836;77;21431;-59
2021/04/07 04:53:15;;;;;;;5.80;2.08;;;;;;;6.70;65.76;98984.27;1786499;78;21185;-58
2021/04/07 04:55:43;;;;;;;5.72;2.58;;;;;;;6.84;64.80;98977.38;1777013;79;21195;-58
2021/04/07 04:58:10;;;;;;;4.45;2.00;;;;;;;6.91;64.85;98978.13;1786977;78;21215;-60
2021/04/07 05:00:38;;;;;;;7.65;2.77;;;;;;;6.95;64.33;98975.11;1763221;78;21267;-59
2021/04/07 05:03:06;;;;;;;5.10;2.37;;;;;;;6.92;63.58;98979.30;1747505;79;21995;-59
2021/04/07 05:05:33;;;;;;;4.62;1.95;;;;;;;6.78;63.86;98979.20;1759028;79;21666;-60
2021/04/07 05:08:01;;;;;;;6.37;2.77;;;;;;;6.66;64.27;98975.86;1783722;79;21206;-59
2021/04/07 05:10:28;;;;;;;4.53;2.00;;;;;;;6.56;64.56;98980.23;1781826;78;21665;-59
2021/04/07 05:12:56;;;;;;;5.75;1.82;;;;;;;6.47;64.71;98989.69;1750089;80;21230;-57
2021/04/07 05:15:23;;;;;;;4.72;2.58;;;;;;;6.37;64.92;98995.81;1780585;80;22080;-57
2021/04/07 05:17:51;;;;;;;5.42;2.45;;;;;;;6.26;65.15;98997.55;1785361;78;21223;-58
2021/04/07 05:20:19;;;;;;;4.75;2.08;;;;;;;6.23;65.87;99006.12;1808981;77;21238;-58
2021/04/07 05:22:46;;;;;;;4.50;1.67;;;;;;;6.20;65.92;99010.30;1746565;78;21219;-61
2021/04/07 05:25:14;;;;;;;5.08;1.95;;;;;;;6.26;65.98;99022.36;1747729;78;21230;-60
2021/04/07 05:27:41;;;;;;;4.97;1.90;;;;;;;6.30;65.98;99021.62;1775962;78;21590;-60
2021/04/07 05:30:11;;;;;;;5.05;1.77;;;;;;;6.33;66.11;99017.45;1767924;80;21483;-60
2021/04/07 05:32:38;;;;;;;4.67;1.98;;;;;;;6.32;66.16;99031.46;1750976;79;21227;-60
2021/04/07 05:35:08;;;;;;;4.03;1.62;;;;;;;6.28;66.12;99032.69;1751883;80;21222;-59
2021/04/07 05:37:36;;;;;;;5.03;2.02;;;;;;;6.18;65.78;99037.03;1779505;78;21207;-59
2021/04/07 05:40:05;;;;;;;3.67;1.55;;;;;;;6.08;65.50;99033.86;1781597;78;21684;-59
2021/04/07 05:42:33;;;;;;;5.28;2.35;;;;;;;6.00;65.81;99038.06;1756585;78;21216;-61
2021/04/07 05:45:00;;;;;;;3.65;1.35;;;;;;;5.97;66.33;99033.09;1775340;78;21203;-61
2021/04/07 05:47:29;;;;;;;3.98;1.62;;;;;;;5.98;66.14;99046.02;1777040;78;21229;-60
2021/04/07 05:49:58;;;;;;;4.75;1.87;;;;;;;5.89;66.32;99042.36;1813404;77;21195;-61
2021/04/07 05:52:25;;;;;;;4.40;1.60;;;;;;;5.90;66.02;99053.63;1783990;78;21270;-58
2021/04/07 05:54:54;;;;;;;5.33;1.92;;;;;;;5.89;66.06;99050.19;1779168;78;21218;-62
2021/04/07 05:57:23;;;;;;;4.83;1.50;;;;;;;5.84;66.51;99047.62;1810548;78;21203;-61
2021/04/07 05:59:51;;;;;;;4.42;1.87;;;;;;;5.83;66.30;99051.98;1755414;80;21593;-60
2021/04/07 06:02:19;;;;;;;4.85;1.52;;;;;;;5.77;66.01;99052.02;1777140;78;21199;-61
2021/04/07 06:04:47;;;;;;;4.22;1.50;;;;;;;5.71;66.13;99051.20;1775975;78;21215;-62
2021/04/07 06:07:17;;;;;;;2.85;1.10;;;;;;;5.67;66.51;99047.20;1810978;78;21247;-61
2021/04/07 06:09:45;;;;;;;4.58;1.47;;;;;;;5.70;66.37;99053.48;1798832;78;21271;-61
2021/04/07 06:12:12;;;;;;;3.70;1.40;;;;;;;5.76;65.80;99054.75;1774226;78;21641;-60
2021/04/07 06:14:40;;;;;;;5.55;1.52;;;;;;;5.73;65.86;99057.16;1774755;78;21219;-61
2021/04/07 06:17:10;;;;;;;6.00;1.20;;;;;;;5.67;65.97;99057.64;1807891;77;22213;-63
2021/04/07 06:19:38;;;;;;;3.87;1.82;;;;;;;5.62;66.06;99066.80;1752341;80;21583;-59
2021/04/07 06:22:05;;;;;;;4.15;1.30;;;;;;;5.55;66.24;99071.69;1787262;78;21120;-60
2021/04/07 06:24:32;;;;;;;3.40;1.30;;;;;;;5.48;66.73;99066.58;1795410;77;21195;-62
2021/04/07 06:27:01;;;;;;;4.40;1.85;;;;;;;5.48;66.78;99065.28;1799926;78;21744;-62
2021/04/07 06:29:29;;;;;;;3.75;1.67;;;;;;;5.53;66.83;99065.73;1803101;77;23058;-61
2021/04/07 06:31:56;;;;;;;5.87;2.42;;;;;;;5.54;66.70;99062.19;1805750;77;21191;-60
2021/04/07 06:34:24;;;;;;;6.62;2.60;;;;;;;5.49;66.75;99063.03;1777580;78;21224;-66
2021/04/07 06:36:54;;;;;;;4.30;1.77;;;;;;;5.43;66.88;99064.36;1760476;80;21792;-60
2021/04/07 06:39:23;;;;;;;3.90;1.50;;;;;;;5.39;66.57;99065.05;1811509;77;21188;-61
2021/04/07 06:41:50;;;;;;;4.67;1.90;;;;;;;5.36;66.42;99067.94;1785331;77;22085;-61
2021/04/07 06:44:18;;;;;;;4.67;2.02;;;;;;;5.31;66.54;99060.95;1775416;80;21163;-61
2021/04/07 06:46:46;;;;;;;4.28;1.90;;;;;;;5.39;66.49;99057.23;1759757;79;21199;-61
2021/04/07 06:49:14;;;;;;;4.50;1.55;;;;;;;5.47;66.67;99050.59;1783601;78;21218;-61
2021/04/07 06:51:42;;;;;;;4.87;1.85;;;;;;;5.50;67.02;99059.48;1802943;77;21606;-61
2021/04/07 06:54:11;;;;;;;3.87;1.80;;;;;;;5.56;66.67;99065.49;1786211;79;21203;-61
2021/04/07 06:56:38;;;;;;;5.10;2.27;;;;;;;5.56;66.18;99070.26;1760419;80;22290;-57
2021/04/07 06:59:06;;;;;;;3.95;1.60;;;;;;;5.50;66.36;99063.40;1803324;77;21175;-57
2021/04/07 07:01:34;;;;;;;5.25;2.15;;;;;;;5.46;66.54;99067.19;1751303;80;21395;-58
2021/04/07 07:04:02;;;;;;;6.25;2.72;;;;;;;5.50;67.02;99067.31;1791059;78;21118;-58
2021/04/07 07:06:30;;;;;;;6.80;3.05;;;;;;;5.61;66.56;99058.61;1790779;78;21203;-57
2021/04/07 07:08:58;;;;;;;7.50;3.30;;;;;;;5.58;66.42;99064.44;1757488;78;21163;-56
2021/04/07 07:11:27;;;;;;;8.23;3.50;;;;;;;5.54;66.02;99066.10;1783169;78;21231;-57
2021/04/07 07:13:58;;;;;;;6.47;3.20;;;;;;;5.46;66.17;99064.09;1787584;78;21242;-58
2021/04/07 07:16:26;;;;;;;7.60;3.50;;;;;;;5.38;66.77;99071.24;1738546;80;21530;-58
2021/04/07 07:18:54;;;;;;;14.05;4.30;;;;;;;5.43;67.31;99079.16;1782408;78;21184;-58
2021/04/07 07:21:25;;;;;;;7.72;4.33;;;;;;;5.56;67.01;99085.06;1782597;78;21156;-59
2021/04/07 07:23:52;;;;;;;6.87;3.50;;;;;;;5.63;67.01;99087.56;1786035;78;21199;-58
2021/04/07 07:26:20;;;;;;;6.60;3.45;;;;;;;5.65;66.94;99093.48;1782280;79;21109;-61
2021/04/07 07:28:54;;;;;;;7.97;3.92;;;;;;;5.62;66.69;99091.11;1790288;78;21207;-61
2021/04/07 07:31:26;;;;;;;8.93;3.87;;;;;;;5.60;66.94;99093.02;1757863;79;21648;-61
2021/04/07 07:33:58;;;;;;;8.15;4.40;;;;;;;5.59;66.88;99093.47;1793271;78;21188;-60
2021/04/07 07:36:28;;;;;;;8.25;4.28;;;;;;;5.65;66.48;99086.95;1785161;78;21140;-59
2021/04/07 07:38:57;;;;;;;7.80;4.37;;;;;;;5.75;66.14;99090.96;1783444;78;21187;-59
2021/04/07 07:41:35;;;;;;;8.65;4.75;;;;;;;5.76;66.33;99082.16;1725174;78;22790;-62
2021/04/07 07:44:05;;;;;;;8.33;4.72;;;;;;;5.74;66.24;99084.89;1764984;78;21217;-62
2021/04/07 07:46:33;;;;;;;9.08;4.47;;;;;;;5.66;66.41;99078.16;1757712;78;21514;-62
2021/04/07 07:49:02;;;;;;;7.83;4.67;;;;;;;5.62;66.85;99079.37;1806740;78;21187;-59
2021/04/07 07:51:30;;;;;;;8.33;4.08;;;;;;;5.62;66.98;99079.37;1749548;78;21160;-59
2021/04/07 07:54:00;;;;;;;6.55;3.40;;;;;;;5.67;66.71;99076.39;1779223;78;21191;-59
2021/04/07 07:56:35;;;;;;;7.35;4.15;;;;;;;5.66;66.14;99070.33;1747643;80;21287;-59
2021/04/07 07:59:03;;;;;;;8.53;4.12;;;;;;;5.65;66.78;99070.45;1771722;79;21200;-58
2021/04/07 08:01:46;;;;;;;6.55;3.67;;;;;;;5.60;66.08;99063.02;1809665;77;21577;-59
2021/04/07 08:04:14;;;;;;;6.85;3.70;;;;;;;5.52;66.94;99054.48;1778687;78;21528;-60
2021/04/07 08:06:41;;;;;;;10.60;4.20;;;;;;;5.57;67.21;99065.86;1769282;79;21129;-61
2021/04/07 08:09:12;;;;;;;7.40;3.50;;;;;;;5.67;66.95;99063.34;1780859;78;21203;-61
2021/04/07 08:11:43;;;;;;;5.83;3.05;;;;;;;5.66;66.71;99065.10;1801988;78;21199;-63
2021/04/07 08:14:16;;;;;;;5.35;2.92;;;;;;;5.63;66.60;99063.22;1784381;79;21135;-59
2021/04/07 08:16:46;;;;;;;6.20;3.00;;;;;;;5.58;67.01;99062.28;1792958;78;21222;-60
2021/04/07 08:19:14;;;;;;;6.90;3.42;;;;;;;5.55;67.35;99062.55;1793061;79;21188;-64
2021/04/07 08:21:46;;;;;;;7.35;3.67;;;;;;;5.58;66.66;99066.20;1786338;80;21445;-58
2021/04/07 08:24:14;;;;;;;8.20;3.52;;;;;;;5.56;66.61;99063.73;1783559;79;21144;-59
2021/04/07 08:26:42;;;;;;;8.50;3.98;;;;;;;5.49;66.45;99071.68;1784664;79;21116;-59
2021/04/07 08:29:10;;;;;;;7.55;4.00;;;;;;;5.44;66.79;99069.91;1754555;80;21152;-59
2021/04/07 08:31:39;;;;;;;6.17;3.08;;;;;;;5.42;66.75;99079.65;1805267;78;21128;-59
2021/04/07 08:34:10;;;;;;;8.73;3.70;;;;;;;5.42;67.14;99077.04;1784346;78;21191;-58
2021/04/07 08:36:43;;;;;;;7.62;4.00;;;;;;;5.53;67.04;99072.26;1735280;81;21171;-57
2021/04/07 08:39:16;;;;;;;6.72;3.37;;;;;;;5.57;66.48;99071.90;1754341;80;21155;-59
2021/04/07 08:41:46;;;;;;;7.87;4.08;;;;;;;5.55;66.81;99083.42;1794324;79;21131;-59
2021/04/07 08:44:13;;;;;;;8.38;4.20;;;;;;;5.53;66.95;99088.77;1780938;80;21112;-59
2021/04/07 08:46:52;;;;;;;7.83;3.98;;;;;;;5.53;66.64;99078.33;1759702;80;21210;-58
2021/04/07 08:49:39;;;;;;;8.15;3.45;;;;;;;5.49;66.56;99070.86;1776602;79;21163;-59
2021/04/07 08:52:20;;;;;;;7.72;3.05;;;;;;;5.49;65.89;99073.47;1786130;78;21108;-61
2021/04/07 08:54:53;;;;;;;5.53;2.95;;;;;;;5.54;66.49;99073.93;1781456;78;21130;-61
2021/04/07 08:58:01;;;;;;;5.35;2.60;;;;;;;5.54;66.70;99073.93;1785145;79;21167;-61
2021/04/07 09:00:31;;;;;;;6.45;2.83;;;;;;;5.54;66.35;99081.27;1734514;80;21468;-62
2021/04/07 09:03:11;;;;;;;6.42;2.80;;;;;;;5.45;66.30;99085.94;1734057;80;21571;-61
2021/04/07 09:05:44;;;;;;;5.33;2.60;;;;;;;5.49;66.54;99087.82;1710336;81;21545;-68
2021/04/07 09:08:21;;;;;;;5.05;2.10;;;;;;;5.58;66.58;99090.98;1743587;80;21211;-68
2021/04/07 09:10:55;;;;;;;6.55;2.83;;;;;;;5.63;66.86;99088.86;1736109;81;21199;-68
2021/04/07 09:13:28;;;;;;;8.28;4.70;;;;;;;5.66;66.21;99106.86;1722939;82;21262;-69
2021/04/07 09:16:03;;;;;;;7.53;3.97;;;;;;;5.62;66.30;99115.91;1653390;85;21172;-69
2021/04/07 09:18:40;;;;;;;6.30;3.08;;;;;;;5.53;66.53;99115.31;1683425;83;21179;-70
2021/04/07 09:21:20;;;;;;;5.20;2.90;;;;;;;5.45;66.55;99119.03;1682610;84;21650;-62
2021/04/07 09:24:02;;;;;;;6.78;2.85;;;;;;;5.41;66.50;99109.28;1678982;83;21625;-66
2021/04/07 09:26:31;;;;;;;5.30;2.25;;;;;;;5.50;66.71;99097.31;1679288;83;21237;-66
2021/04/07 09:28:59;;;;;;;6.22;2.55;;;;;;;5.49;66.44;99093.04;1680846;83;21341;-69
2021/04/07 09:31:35;;;;;;;6.10;2.77;;;;;;;5.43;66.33;99094.36;1680984;83;21284;-61
2021/04/07 09:34:05;;;;;;;4.97;2.37;;;;;;;5.38;65.67;99086.08;1682272;83;21216;-64
2021/04/07 09:36:36;;;;;;;7.05;3.40;;;;;;;5.28;66.27;99088.58;1681827;83;21225;-67
2021/04/07 09:39:10;;;;;;;13.90;7.20;;;;;;;5.26;66.65;99093.09;1680719;83;21459;-64
2021/04/07 09:41:41;;;;;;;5.60;2.83;;;;;;;5.37;66.53;99089.14;1684210;83;21349;-68
2021/04/07 09:44:10;;;;;;;11.43;3.60;;;;;;;5.37;66.20;99091.75;1679065;83;21224;-70
2021/04/07 09:46:39;;;;;;;6.35;3.50;;;;;;;5.32;66.50;99099.11;1649140;85;21133;-60
2021/04/07 09:49:09;;;;;;;7.12;3.75;;;;;;;5.25;67.12;99089.30;1641800;84;21633;-62
2021/04/07 09:51:48;;;;;;;7.65;3.00;;;;;;;5.27;67.27;99090.00;1683214;83;21676;-61
2021/04/07 09:54:23;;;;;;;7.35;4.00;;;;;;;5.26;67.35;99090.94;1700320;82;21230;-60
2021/04/07 09:57:10;;;;;;;7.70;4.62;;;;;;;5.30;67.33;99085.84;1710443;82;21241;-62
2021/04/07 09:59:42;;;;;;;7.10;4.58;;;;;;;5.39;66.80;99086.41;1665693;83;21935;-60
2021/04/07 10:02:26;;;;;;;6.85;3.00;;;;;;;5.33;66.56;99088.19;1694083;82;21206;-61
2021/04/07 10:04:55;;;;;;;7.35;3.15;;;;;;;5.22;66.38;99091.66;1706232;82;21267;-62
2021/04/07 10:07:26;;;;;;;6.92;3.90;;;;;;;5.16;67.19;99101.25;1708195;82;21244;-62
2021/04/07 10:09:55;;;;;;;5.83;2.87;;;;;;;5.13;67.79;99108.03;1675561;84;21213;-63
2021/04/07 10:12:30;;;;;;;6.80;3.52;;;;;;;5.19;67.67;99115.36;1704318;82;21179;-59
2021/04/07 10:15:02;;;;;;;7.10;3.37;;;;;;;5.32;67.52;99119.97;1709147;82;21158;-61
2021/04/07 10:17:33;;;;;;;7.03;3.35;;;;;;;5.42;67.02;99114.05;1707294;82;21232;-60
2021/04/07 10:20:14;;;;;;;6.05;2.55;;;;;;;5.45;66.81;99121.64;1687028;83;21270;-60
2021/04/07 10:22:43;;;;;;;9.08;5.58;;;;;;;5.42;66.58;99123.18;1701426;82;21647;-63
2021/04/07 10:25:14;;;;;;;4.95;2.55;;;;;;;5.36;66.73;99114.89;1703531;82;21214;-57
2021/04/07 10:27:43;;;;;;;6.40;2.75;;;;;;;5.27;66.43;99123.42;1700186;82;21194;-61
2021/04/07 10:30:18;;;;;;;5.15;2.62;;;;;;;5.21;67.09;99121.28;1701386;82;21288;-61
2021/04/07 10:32:52;;;;;;;6.37;2.80;;;;;;;5.26;67.04;99124.39;1679367;83;21258;-62
2021/04/07 10:35:27;;;;;;;6.15;2.98;;;;;;;5.27;67.03;99122.11;1696555;82;21610;-62
2021/04/07 10:38:05;;;;;;;6.65;3.33;;;;;;;5.25;66.86;99116.20;1698902;82;21218;-61
2021/04/07 10:40:36;;;;;;;4.95;2.52;;;;;;;5.23;67.23;99121.16;1695130;82;21230;-60
2021/04/07 10:43:17;;;;;;;5.33;2.95;;;;;;;5.19;67.72;99111.45;1675810;83;22129;-63
2021/04/07 10:46:04;;;;;;;8.48;4.20;;;;;;;5.24;67.86;99103.27;1697514;82;21530;-60
2021/04/07 11:01:33;;;;;;;7.70;4.42;;;;;;;6.67;62.71;99092.55;1863881;76;22780;-60
2021/04/07 11:04:15;;;;;;;6.55;3.47;;;;;;;6.63;62.91;99095.05;1839662;75;21164;-62
2021/04/07 11:06:43;;;;;;;7.65;3.55;;;;;;;6.42;63.28;99097.69;1807399;75;21393;-60
2021/04/07 11:09:12;;;;;;;8.40;3.47;;;;;;;6.23;63.53;99102.77;1799914;78;21695;-61
2021/04/07 11:11:42;;;;;;;6.33;3.08;;;;;;;6.07;64.26;99099.27;1771675;78;21188;-61
2021/04/07 11:14:10;;;;;;;7.33;3.25;;;;;;;5.92;64.97;99102.16;1743244;79;21498;-60
2021/04/07 11:16:40;;;;;;;6.50;3.33;;;;;;;5.81;65.06;99095.67;1775275;79;21076;-62
2021/04/07 11:19:15;;;;;;;6.47;3.10;;;;;;;5.76;65.60;99099.13;1766687;78;21234;-60
2021/04/07 11:21:46;;;;;;;8.15;3.35;;;;;;;5.71;65.64;99106.02;1762491;78;21078;-63
2021/04/07 11:24:15;;;;;;;6.95;3.40;;;;;;;5.62;66.00;99105.46;1785000;78;21107;-60
2021/04/07 11:26:43;;;;;;;6.30;2.92;;;;;;;5.52;65.42;99104.05;1761792;79;21233;-60
2021/04/07 11:29:11;;;;;;;6.42;3.25;;;;;;;5.43;65.97;99110.47;1737738;80;21132;-60
2021/04/07 11:31:39;;;;;;;7.10;3.02;;;;;;;5.35;67.18;99101.97;1799392;78;21205;-60
2021/04/07 11:34:10;;;;;;;6.25;3.12;;;;;;;5.39;66.86;99102.88;1773757;80;21167;-60
2021/04/07 11:37:03;;;;;;;9.18;3.10;;;;;;;5.44;67.32;99103.02;1798554;78;21220;-60
2021/04/07 11:42:06;;;;;;;6.20;2.47;;;;;;;5.33;66.93;99109.05;1789665;78;21128;-61
2021/04/07 11:44:32;;;;;;;5.33;2.65;;;;;;;5.22;67.07;99115.13;1770360;80;21148;-62
2021/04/07 11:47:01;;;;;;;6.10;2.52;;;;;;;5.24;67.32;99119.74;1768370;79;21223;-61
2021/04/07 11:49:31;;;;;;;5.70;2.35;;;;;;;5.26;66.87;99119.17;1778900;78;21226;-59
2021/04/07 11:51:58;;;;;;;6.42;2.55;;;;;;;5.23;66.48;99118.10;1802531;78;21191;-57
2021/04/07 11:54:26;;;;;;;9.43;3.35;;;;;;;5.20;67.13;99117.85;1740310;80;21200;-60
2021/04/07 11:56:54;;;;;;;7.08;3.30;;;;;;;5.17;67.46;99119.88;1743868;80;21236;-59
2021/04/07 11:59:22;;;;;;;6.53;2.33;;;;;;;5.08;67.95;99125.34;1800566;78;21552;-60
2021/04/07 12:01:57;;;;;;;6.97;3.47;;;;;;;5.03;68.51;99132.20;1742155;80;21594;-58
2021/04/07 12:04:28;;;;;;;6.10;2.60;;;;;;;5.11;68.27;99137.29;1798425;77;21601;-60
2021/04/07 12:06:55;;;;;;;7.80;4.00;;;;;;;5.10;68.21;99131.73;1760314;80;21662;-61
2021/04/07 12:09:25;;;;;;;5.87;3.27;;;;;;;5.05;68.78;99132.56;1792062;77;21211;-60